Αρχική σελίδα
METAR-TAF:

METAR-TAF

Αεροδρόμια :

Λα Παζ, Βολιβία

γεωγραφικό πλάτος: 16-31S, γεωγραφικό μήκος: 068-11W, υψόμετρο: 4058 μ

Παρών καιρός

Η αναφορά έγινε 1 ώρα και 7 λεπτά πριν, στις 17:00 UTC
Άνεμος 11 kt από Ν/NA, μεταβλητός μεταξύ Α/NA και Ν
Θερμοκρασία 15°C
Υγρασία 10%
Πίεση 1042 hPa
Ορατότητα 10 χλμ και άνω

METAR: SLLP 251700Z 15011KT 110V180 9999 NSC 15/M16 Q1042

Χρόνος: 14:07 (18:07 UTC)

Πρόγνωση Καιρού

Η αναφορά έγινε 1 ώρα και 52 λεπτά πριν, στις 16:15 UTC
Η πρόγνωση ισχύει από τις 25 στις 18 UTC έως τις 26 στις 18 UTC
Άνεμος 12 kt από Ν/NA
Ορατότητα 10 χλμ και άνω
Λίγα νέφη σε ύψος 1700 πόδια
Καθιστάμενος
από 26 στις 01 UTC έως τις 26 στις 03 UTC
Άνεμος 2 kt από μεταβλητές κατευθύνσεις
Καθιστάμενος
από 26 στις 14 UTC έως τις 26 στις 17 UTC
Άνεμος 6 kt από Ν/ΝΔ

TAF: SLLP 251615Z 2518/2618 16012KT 9999 FEW017 TX15/2520Z TNM05/2610Z BECMG 2601/2603 VRB02KT BECMG 2614/2617 20006KT

Μετεωρολογικές αναφορές και προγνώσεις για περισσότερα από 4000 αεροδρόμια (δελτία METAR και TAF).

Οι διαθέσιμοι σταθμοί απεικονίζονται στο χάρτη με κίτρινες και κόκκινες κουκκίδες.

Μετακινήστε το ποντίκι πάνω από τις κουκκίδες για να δείτε το όνομα του σταθμού.

Στη συνέχεια, κάντε κλικ για να δείτε τις μετεωρολογικές αναφορές και τις προγνώσεις καιρού.

Για να αλλάξετε το χάρτη: κάντε κλικ στα πράσινα κουμπιά με τον μαύρο σταυρό για να ζουμάρετε, στο πράσινο κουμπί με την παύλα για να αφαιρέσετε το ζουμ ή στα πράσινα βέλη για να αντιπαραβάλλετε χάρτες.


METAR-TAF: